Raiatea — V7VA3 — position and weather

sailwx.info

Track history (hours):
 
Tides and Currents Weather Stations Pressure Air Temp Water Temp Dewpoint Dewpoint Depression Visibility Wind Speed Wind Dir Waves Ship Positions

Raiatea

Last reported at 2017-Mar-14 13:30 UTC. Time now 2017-Mar-28 19:35 UTC.
Position N 37°44' E 122°32'.
Warning: this ship's position is 14 days out of date.

Length 292 m; draft 10.3 m.

Type: Cargo ship. MMSI: 538004070.

Date/timePositionNaut miles runAvg speedWind from/ knotsBaromVisibWave heightAir tempDewpointWater temp
2017-Mar-14 13:30N 37°44' E 122°32'1313.4
2017-Mar-14 12:33N 37°50' E 122°18'1413.8
2017-Mar-14 11:33N 37°57' E 122°03'1414.2
2017-Mar-14 10:34N 38°03' E 121°47'1414.5
2017-Mar-14 09:34N 38°11' E 121°31'1514.7
2017-Mar-14 08:33N 38°21' E 121°17'1313.3
2017-Mar-14 07:34N 38°28' E 121°03'1413.5
2017-Mar-14 06:33N 38°35' E 120°48'1313.0
2017-Mar-14 05:33N 38°40' E 120°33'1412.8
2017-Mar-14 04:27N 38°45' E 120°16'  
2017-Mar-08 09:33N 38°47' E 120°13'1211.6
2017-Mar-08 08:33N 38°44' E 120°27'1111.0
2017-Mar-08 07:33N 38°41' E 120°40'1110.6
2017-Mar-08 06:33N 38°37' E 120°53'1110.6
2017-Mar-08 05:33N 38°33' E 121°05'1110.4
2017-Mar-08 04:32N 38°27' E 121°17'  
Track history (hours):
 
Tides and Currents Weather Stations Pressure Air Temp Water Temp Dewpoint Dewpoint Depression Visibility Wind Speed Wind Dir Waves Ship Positions

Raiatea

Last reported at 2017-Mar-14 13:30 UTC. Time now 2017-Mar-28 19:35 UTC.
Position N 37°44' E 122°32'.
Warning: this ship's position is 14 days out of date.

Length 292 m; draft 10.3 m.

Type: Cargo ship. MMSI: 538004070.

Date/timePositionNaut miles runAvg speedWind from/ knotsBaromVisibWave heightAir tempDewpointWater temp
2017-Mar-14 13:30N 37°44' E 122°32'1313.4
2017-Mar-14 12:33N 37°50' E 122°18'1413.8
2017-Mar-14 11:33N 37°57' E 122°03'1414.2
2017-Mar-14 10:34N 38°03' E 121°47'1414.5
2017-Mar-14 09:34N 38°11' E 121°31'1514.7
2017-Mar-14 08:33N 38°21' E 121°17'1313.3
2017-Mar-14 07:34N 38°28' E 121°03'1413.5
2017-Mar-14 06:33N 38°35' E 120°48'1313.0
2017-Mar-14 05:33N 38°40' E 120°33'1412.8
2017-Mar-14 04:27N 38°45' E 120°16'  
2017-Mar-08 09:33N 38°47' E 120°13'1211.6
2017-Mar-08 08:33N 38°44' E 120°27'1111.0
2017-Mar-08 07:33N 38°41' E 120°40'1110.6
2017-Mar-08 06:33N 38°37' E 120°53'1110.6
2017-Mar-08 05:33N 38°33' E 121°05'1110.4
2017-Mar-08 04:32N 38°27' E 121°17'  

Dump ship's entire track history